Time;durP1;ratioP1;P1;durP2;ratioP2;P2;SDS_P1;SDS_P2;PMS_P1;PMS_P2;Temp;Humidity;BMP_temperature;BMP_pressure;BME280_temperature;BME280_humidity;BME280_pressure;Samples;Min_cycle;Max_cycle;Signal;HPM_P1;HPM_P2
2023/06/02 00:00:00;;;;;;;42.20;7.40;;;;;;;-144.73;100.00;54374.84;5073772;28;20035;-76
2023/06/02 00:02:33;;;;;;;48.78;8.05;;;;;;;-144.73;100.00;54352.28;5081944;28;20046;-76
2023/06/02 00:04:59;;;;;;;66.20;9.32;;;;;;;-144.73;100.00;54333.81;5081315;28;20035;-75
2023/06/02 00:07:28;;;;;;;48.28;7.72;;;;;;;-144.73;100.00;54368.69;5089222;28;20028;-74
2023/06/02 00:09:55;;;;;;;54.10;8.18;;;;;;;-144.73;100.00;54346.13;5074220;28;20032;-74
2023/06/02 00:12:21;;;;;;;53.13;7.57;;;;;;;-144.73;100.00;54337.91;5081481;28;20029;-74
2023/06/02 00:14:48;;;;;;;55.13;8.07;;;;;;;-144.73;100.00;54366.66;5072305;28;20027;-75
2023/06/02 00:17:14;;;;;;;51.83;8.10;;;;;;;-144.73;100.00;54350.22;5077862;28;20060;-75
2023/06/02 00:19:42;;;;;;;54.67;6.30;;;;;;;-144.73;100.00;54333.81;5081791;28;20016;-76
2023/06/02 00:22:13;;;;;;;54.78;7.40;;;;;;;-144.73;100.00;54383.06;5088370;28;20028;-76
2023/06/02 00:24:38;;;;;;;49.35;7.97;;;;;;;-144.73;100.00;54358.44;5082543;28;20111;-76
2023/06/02 00:27:04;;;;;;;51.13;8.23;;;;;;;-144.73;100.00;54387.19;5085073;28;20104;-76
2023/06/02 00:29:30;;;;;;;49.78;7.35;;;;;;;-144.73;100.00;54383.06;5071827;28;20013;-75
2023/06/02 00:31:55;;;;;;;47.08;8.00;;;;;;;-144.73;100.00;54350.22;5073652;28;20037;-75
2023/06/02 00:34:20;;;;;;;51.10;7.63;;;;;;;-144.73;100.00;54399.50;5084435;28;20096;-75
2023/06/02 00:36:46;;;;;;;45.95;7.47;;;;;;;-144.73;100.00;54407.69;5079254;28;20024;-75
2023/06/02 00:39:11;;;;;;;45.40;6.80;;;;;;;-144.73;100.00;54374.84;5080644;28;20073;-76
2023/06/02 00:41:36;;;;;;;48.55;7.63;;;;;;;-144.73;100.00;54395.38;5082555;28;20063;-75
2023/06/02 00:44:02;;;;;;;53.50;8.88;;;;;;;-144.73;100.00;54374.84;5084365;28;20107;-76
2023/06/02 00:46:27;;;;;;;58.03;8.32;;;;;;;-144.73;100.00;54354.34;5090692;28;20028;-75
2023/06/02 00:48:52;;;;;;;46.00;7.18;;;;;;;-144.73;100.00;54383.06;5084631;28;20028;-75
2023/06/02 00:51:19;;;;;;;49.80;7.97;;;;;;;-144.73;100.00;54391.28;5083409;28;20027;-75
2023/06/02 00:53:45;;;;;;;66.25;7.40;;;;;;;-144.73;100.00;54350.22;5089042;28;20020;-76
2023/06/02 00:56:14;;;;;;;70.63;9.13;;;;;;;-144.73;100.00;54362.53;5070334;28;20134;-76
2023/06/02 00:58:43;;;;;;;51.55;7.88;;;;;;;-144.73;100.00;54383.06;5070840;28;20036;-75
2023/06/02 01:01:11;;;;;;;47.17;7.35;;;;;;;-144.73;100.00;54329.72;5074976;28;20077;-75
2023/06/02 01:03:44;;;;;;;53.72;8.75;;;;;;;-144.73;100.00;54372.81;5072972;28;20300;-75
2023/06/02 01:06:12;;;;;;;56.63;7.95;;;;;;;-144.73;100.00;54366.66;5090279;28;20024;-76
2023/06/02 01:08:39;;;;;;;64.15;8.70;;;;;;;-144.73;100.00;54391.28;5089777;28;20043;-75
2023/06/02 01:11:06;;;;;;;53.30;7.22;;;;;;;-144.73;100.00;54364.59;5080328;28;20074;-75
2023/06/02 01:13:32;;;;;;;49.83;7.78;;;;;;;-144.73;100.00;54366.66;5086979;28;20074;-75
2023/06/02 01:15:57;;;;;;;50.13;7.70;;;;;;;-144.73;100.00;54374.84;5084136;28;20043;-75
2023/06/02 01:18:25;;;;;;;57.97;8.05;;;;;;;-144.73;100.00;54366.66;5081609;28;20407;-75
2023/06/02 01:20:57;;;;;;;43.50;8.85;;;;;;;-144.73;100.00;54385.13;5082857;28;20034;-75
2023/06/02 01:23:33;;;;;;;60.92;8.25;;;;;;;-144.73;100.00;54354.34;5084226;28;20079;-75
2023/06/02 01:26:00;;;;;;;55.80;8.38;;;;;;;-144.73;100.00;54374.84;5083143;28;20035;-75
2023/06/02 01:28:25;;;;;;;56.03;8.35;;;;;;;-144.73;100.00;54374.84;5085632;28;20032;-75
2023/06/02 01:30:58;;;;;;;74.03;8.88;;;;;;;-144.73;100.00;54376.91;5075434;28;20086;-75
2023/06/02 01:33:42;;;;;;;44.75;7.40;;;;;;;-144.73;100.00;54342.03;5079508;28;20062;-75
2023/06/02 01:36:07;;;;;;;51.50;7.90;;;;;;;-144.73;100.00;54378.97;5077698;28;20131;-75
2023/06/02 01:38:37;;;;;;;54.17;8.93;;;;;;;-144.73;100.00;54407.69;5082539;28;20047;-75
2023/06/02 01:41:03;;;;;;;55.72;7.68;;;;;;;-144.73;100.00;54346.13;5081113;28;20028;-75
2023/06/02 01:43:32;;;;;;;50.33;7.45;;;;;;;-144.73;100.00;54415.91;5080287;28;20035;-75
2023/06/02 01:45:59;;;;;;;63.33;9.35;;;;;;;-144.73;100.00;54411.81;5082461;28;20024;-75
2023/06/02 01:48:28;;;;;;;65.13;8.77;;;;;;;-144.73;100.00;54378.97;5079051;28;20119;-75
2023/06/02 01:50:54;;;;;;;63.60;9.02;;;;;;;-144.73;100.00;54352.28;5086854;28;20057;-75
2023/06/02 01:53:20;;;;;;;59.83;9.15;;;;;;;-144.73;100.00;54350.22;5076249;28;20121;-75
2023/06/02 01:55:47;;;;;;;60.47;8.02;;;;;;;-144.73;100.00;54385.13;5080771;28;20051;-75
2023/06/02 01:58:13;;;;;;;68.05;10.38;;;;;;;-144.73;100.00;54368.69;5068524;28;20040;-75
2023/06/02 02:00:38;;;;;;;64.13;9.27;;;;;;;-144.73;100.00;54368.69;5082621;28;20071;-75
2023/06/02 02:03:04;;;;;;;63.78;9.63;;;;;;;-144.73;100.00;54346.13;5080088;28;20510;-75
2023/06/02 02:05:30;;;;;;;60.22;8.40;;;;;;;-144.73;100.00;54387.19;5081935;28;20024;-75
2023/06/02 02:07:57;;;;;;;56.83;8.57;;;;;;;-144.73;100.00;54383.06;5086179;28;20081;-75
2023/06/02 02:10:23;;;;;;;59.85;9.60;;;;;;;-144.73;100.00;54366.66;5076933;28;20436;-75
2023/06/02 02:12:49;;;;;;;68.50;9.43;;;;;;;-144.73;100.00;54383.06;5076608;28;20029;-76
2023/06/02 02:15:15;;;;;;;72.85;10.57;;;;;;;-144.73;100.00;54428.22;5079676;28;20111;-75
2023/06/02 02:17:45;;;;;;;61.05;9.77;;;;;;;-144.73;100.00;54387.19;5085601;28;20032;-75
2023/06/02 02:20:12;;;;;;;61.35;9.27;;;;;;;-144.73;100.00;54409.75;5074316;28;20029;-75
2023/06/02 02:22:37;;;;;;;60.55;8.48;;;;;;;-144.73;100.00;54362.53;5070349;28;20021;-76
2023/06/02 02:25:03;;;;;;;59.53;8.70;;;;;;;-144.73;100.00;54366.66;5076271;28;20489;-75
2023/06/02 02:27:29;;;;;;;60.97;9.82;;;;;;;-144.73;100.00;54381.00;5078085;28;20028;-75
2023/06/02 02:29:54;;;;;;;64.07;10.13;;;;;;;-144.73;100.00;54358.44;5086848;28;20034;-74
2023/06/02 02:32:20;;;;;;;70.68;10.05;;;;;;;-144.73;100.00;54366.66;5080913;28;20558;-74
2023/06/02 02:34:46;;;;;;;56.22;8.57;;;;;;;-144.73;100.00;54342.03;5088467;28;20050;-74
2023/06/02 02:37:13;;;;;;;62.58;9.13;;;;;;;-144.73;100.00;54368.69;5086042;28;20036;-74
2023/06/02 02:39:38;;;;;;;64.07;11.70;;;;;;;-144.73;100.00;54383.06;5083905;28;20069;-76
2023/06/02 02:42:04;;;;;;;46.25;8.63;;;;;;;-144.73;100.00;54407.69;5085296;28;20466;-75
2023/06/02 02:44:29;;;;;;;80.05;11.45;;;;;;;-144.73;100.00;54378.97;5084156;28;20024;-75
2023/06/02 02:46:55;;;;;;;66.57;10.30;;;;;;;-144.73;100.00;54395.38;5080820;28;20124;-75
2023/06/02 02:49:20;;;;;;;73.20;9.15;;;;;;;-144.73;100.00;54354.34;5085741;28;20064;-75
2023/06/02 02:51:45;;;;;;;70.05;8.82;;;;;;;-144.73;100.00;54407.69;5082128;28;20038;-75
2023/06/02 02:54:11;;;;;;;66.75;9.35;;;;;;;-144.73;100.00;54391.28;5075411;28;20491;-75
2023/06/02 02:56:38;;;;;;;65.22;9.40;;;;;;;-144.73;100.00;54366.66;5084790;28;20028;-75
2023/06/02 02:59:04;;;;;;;43.33;7.75;;;;;;;-144.73;100.00;54407.69;5079673;28;20024;-75
2023/06/02 03:01:29;;;;;;;60.60;9.07;;;;;;;-144.73;100.00;54337.91;5071230;28;20031;-75
2023/06/02 03:03:56;;;;;;;75.78;11.13;;;;;;;-144.73;100.00;54420.00;5077578;28;20016;-75
2023/06/02 03:06:28;;;;;;;55.67;7.88;;;;;;;-144.73;100.00;54420.00;5076521;28;20032;-75
2023/06/02 03:08:53;;;;;;;71.03;9.50;;;;;;;-144.73;100.00;54411.81;5076460;28;20028;-75
2023/06/02 03:11:18;;;;;;;72.70;9.35;;;;;;;-144.73;100.00;54374.84;5079105;28;20029;-75
2023/06/02 03:13:44;;;;;;;78.63;11.20;;;;;;;-144.73;100.00;54370.75;5078782;28;20099;-75
2023/06/02 03:16:09;;;;;;;61.83;9.07;;;;;;;-144.73;100.00;54370.75;5074283;28;20052;-75
2023/06/02 03:18:35;;;;;;;77.47;11.85;;;;;;;-144.73;100.00;54374.84;5077954;28;20032;-75
2023/06/02 03:21:02;;;;;;;65.10;9.85;;;;;;;-144.73;100.00;54378.97;5085957;28;20024;-74
2023/06/02 03:23:28;;;;;;;64.35;8.68;;;;;;;-144.73;100.00;54378.97;5089679;28;20028;-75
2023/06/02 03:25:54;;;;;;;54.90;8.70;;;;;;;-144.73;100.00;54391.28;5091811;28;20024;-76
2023/06/02 03:28:20;;;;;;;65.20;10.98;;;;;;;-144.73;100.00;54409.75;5092807;28;20119;-75
2023/06/02 03:30:46;;;;;;;55.15;9.18;;;;;;;-144.73;100.00;54409.75;5087603;28;20051;-76
2023/06/02 03:33:11;;;;;;;65.13;9.13;;;;;;;-144.73;100.00;54378.97;5086235;28;20251;-76
2023/06/02 03:35:36;;;;;;;57.50;9.85;;;;;;;-144.73;100.00;54399.50;5081976;28;20031;-74
2023/06/02 03:38:05;;;;;;;65.78;8.85;;;;;;;-144.73;100.00;54358.44;5087985;28;20089;-75
2023/06/02 03:40:30;;;;;;;63.28;9.65;;;;;;;-144.73;100.00;54424.13;5080488;28;20033;-76
2023/06/02 03:42:56;;;;;;;65.10;9.00;;;;;;;-144.73;100.00;54409.75;5077784;28;20032;-76
2023/06/02 03:45:21;;;;;;;50.55;9.07;;;;;;;-144.73;100.00;54383.06;5089592;28;20051;-75
2023/06/02 03:47:46;;;;;;;55.78;9.52;;;;;;;-144.73;100.00;54381.00;5083329;28;20105;-75
2023/06/02 03:50:12;;;;;;;55.60;9.13;;;;;;;-144.73;100.00;54374.84;5081958;28;20056;-75
2023/06/02 03:52:37;;;;;;;60.00;9.25;;;;;;;-144.73;100.00;54407.69;5085264;28;20033;-75
2023/06/02 03:55:03;;;;;;;72.07;11.40;;;;;;;-144.73;100.00;54378.97;5085798;28;20153;-75
2023/06/02 03:57:30;;;;;;;63.65;11.27;;;;;;;-144.73;100.00;54383.06;5086217;28;20047;-75
2023/06/02 03:59:55;;;;;;;59.67;9.02;;;;;;;-144.73;100.00;54407.69;5080813;28;20056;-75
2023/06/02 04:02:20;;;;;;;48.60;8.32;;;;;;;-144.73;100.00;54383.06;5087190;28;20073;-75
2023/06/02 04:04:46;;;;;;;58.58;9.45;;;;;;;-144.73;100.00;54391.28;5090828;28;20146;-75
2023/06/02 04:07:11;;;;;;;57.70;8.68;;;;;;;-144.73;100.00;54415.91;5085303;28;20063;-75
2023/06/02 04:09:37;;;;;;;49.03;8.15;;;;;;;-144.73;100.00;54391.28;5091977;28;20055;-75
2023/06/02 04:12:03;;;;;;;67.90;8.48;;;;;;;-144.73;100.00;54391.28;5085440;28;20135;-75
2023/06/02 04:14:30;;;;;;;58.42;7.30;;;;;;;-144.73;100.00;54342.03;5083496;28;20443;-75
2023/06/02 04:16:56;;;;;;;45.88;8.13;;;;;;;-144.73;100.00;54366.66;5079608;28;20032;-74
2023/06/02 04:19:21;;;;;;;55.78;8.23;;;;;;;-144.73;100.00;54411.81;5084370;28;20054;-74
2023/06/02 04:21:47;;;;;;;45.22;7.40;;;;;;;-144.73;100.00;54391.28;5080594;28;20033;-75
2023/06/02 04:24:12;;;;;;;53.80;8.45;;;;;;;-144.73;100.00;54415.91;5075065;28;20040;-75
2023/06/02 04:26:37;;;;;;;47.40;8.45;;;;;;;-144.73;100.00;54395.38;5085721;28;20062;-74
2023/06/02 04:29:03;;;;;;;49.72;7.22;;;;;;;-144.73;100.00;54397.44;5083540;28;20055;-75
2023/06/02 04:31:48;;;;;;;46.95;7.88;;;;;;;-144.73;100.00;54415.91;5091005;28;20097;-75
2023/06/02 04:34:14;;;;;;;42.53;7.18;;;;;;;-144.73;100.00;54393.34;5082727;28;20070;-74
2023/06/02 04:36:40;;;;;;;47.50;7.18;;;;;;;-144.73;100.00;54407.69;5086694;28;20032;-75
2023/06/02 04:39:07;;;;;;;34.63;6.53;;;;;;;-144.73;100.00;54420.00;5077997;28;20040;-75
2023/06/02 04:41:32;;;;;;;33.50;6.50;;;;;;;-144.73;100.00;54420.00;5088063;28;20169;-75
2023/06/02 04:43:58;;;;;;;28.50;6.55;;;;;;;-144.73;100.00;54411.81;5090833;28;20055;-74
2023/06/02 04:46:26;;;;;;;41.15;7.05;;;;;;;-144.73;100.00;54358.44;5088375;28;20036;-74
2023/06/02 04:48:52;;;;;;;43.88;7.97;;;;;;;-144.73;100.00;54407.69;5081671;28;20535;-74
2023/06/02 04:51:19;;;;;;;37.30;7.15;;;;;;;-144.73;100.00;54360.50;5083570;28;20028;-75
2023/06/02 04:53:44;;;;;;;42.13;7.50;;;;;;;-144.73;100.00;54411.81;5071149;28;20017;-75
2023/06/02 04:56:10;;;;;;;40.85;7.72;;;;;;;-144.73;100.00;54374.84;5080936;28;20035;-75
2023/06/02 04:58:35;;;;;;;36.58;6.25;;;;;;;-144.73;100.00;54366.66;5077669;28;20036;-75
2023/06/02 05:01:02;;;;;;;31.05;6.00;;;;;;;-144.73;100.00;54370.75;5083332;28;20030;-75
2023/06/02 05:03:27;;;;;;;53.10;7.35;;;;;;;-144.73;100.00;54407.69;5087325;28;20031;-75
2023/06/02 05:05:52;;;;;;;31.38;6.53;;;;;;;-144.73;100.00;54370.75;5087113;28;20032;-75
2023/06/02 05:08:18;;;;;;;35.55;6.93;;;;;;;-144.73;100.00;54387.19;5091568;28;20036;-75
2023/06/02 05:10:43;;;;;;;42.83;6.80;;;;;;;-144.73;100.00;54374.84;5100991;28;20016;-75
2023/06/02 05:13:08;;;;;;;38.65;5.70;;;;;;;-144.73;100.00;54407.69;5103424;28;20031;-75
2023/06/02 05:15:34;;;;;;;36.22;6.32;;;;;;;-144.73;100.00;54407.69;5098202;28;20027;-75
2023/06/02 05:18:00;;;;;;;39.92;6.47;;;;;;;-144.73;100.00;54442.59;5098822;28;20051;-75
2023/06/02 05:20:25;;;;;;;35.42;6.28;;;;;;;-144.73;100.00;54346.13;5099243;28;20479;-75
2023/06/02 05:22:51;;;;;;;33.75;6.93;;;;;;;-144.73;100.00;54370.75;5088609;28;20033;-75
2023/06/02 05:25:16;;;;;;;19.52;5.20;;;;;;;-144.73;100.00;54387.19;5093176;28;20024;-75
2023/06/02 05:27:41;;;;;;;34.50;5.45;;;;;;;-144.73;100.00;54395.38;5090186;28;20032;-75
2023/06/02 05:30:07;;;;;;;26.33;5.53;;;;;;;-144.73;100.00;54387.19;5088778;28;20039;-75
2023/06/02 05:32:32;;;;;;;39.75;5.90;;;;;;;-144.73;100.00;54420.00;5089331;28;20036;-75
2023/06/02 05:34:58;;;;;;;36.72;7.03;;;;;;;-144.73;100.00;54378.97;5089576;28;20027;-76
2023/06/02 05:37:23;;;;;;;23.50;5.47;;;;;;;-144.73;100.00;54354.34;5090289;28;20032;-75
2023/06/02 05:39:48;;;;;;;41.78;7.40;;;;;;;-144.73;100.00;54420.00;5089151;28;20024;-75
2023/06/02 05:42:14;;;;;;;28.60;5.15;;;;;;;-144.73;100.00;54430.28;5089839;28;20050;-75
2023/06/02 05:44:39;;;;;;;27.17;5.97;;;;;;;-144.73;100.00;54387.19;5096806;28;20036;-75
2023/06/02 05:47:05;;;;;;;29.05;6.25;;;;;;;-144.73;100.00;54387.19;5098912;28;20044;-75
2023/06/02 05:49:30;;;;;;;29.58;5.82;;;;;;;-144.73;100.00;54378.97;5100066;28;20065;-75
2023/06/02 05:51:56;;;;;;;23.02;5.85;;;;;;;-144.73;100.00;54399.50;5103229;28;20036;-75
2023/06/02 05:54:21;;;;;;;36.47;6.47;;;;;;;-144.73;100.00;54378.97;5097838;28;20055;-76
2023/06/02 05:56:46;;;;;;;19.52;6.18;;;;;;;-144.73;100.00;54387.19;5091027;28;20097;-76
2023/06/02 05:59:12;;;;;;;28.63;5.97;;;;;;;-144.73;100.00;54383.06;5104247;28;20031;-75
2023/06/02 06:01:37;;;;;;;24.70;6.25;;;;;;;-144.73;100.00;54374.84;5096222;28;20028;-75
2023/06/02 06:04:02;;;;;;;30.40;7.20;;;;;;;-144.73;100.00;54407.69;5096678;28;20035;-75
2023/06/02 06:06:28;;;;;;;30.88;6.47;;;;;;;-144.73;100.00;54389.22;5098567;28;20023;-75
2023/06/02 06:08:53;;;;;;;30.40;6.20;;;;;;;-144.73;100.00;54407.69;5100704;28;20028;-75
2023/06/02 06:11:20;;;;;;;22.90;5.95;;;;;;;-144.73;100.00;54374.84;5096319;28;20030;-75
2023/06/02 06:13:45;;;;;;;37.85;6.68;;;;;;;-144.73;100.00;54374.84;5098953;28;20024;-76
2023/06/02 06:16:10;;;;;;;33.92;6.35;;;;;;;-144.73;100.00;54389.22;5099878;28;20027;-75
2023/06/02 06:18:36;;;;;;;27.88;6.47;;;;;;;-144.73;100.00;54378.97;5096937;28;20044;-76
2023/06/02 06:21:01;;;;;;;23.45;6.65;;;;;;;-144.73;100.00;54395.38;5097192;28;20043;-76
2023/06/02 06:23:27;;;;;;;31.73;6.30;;;;;;;-144.73;100.00;54411.81;5095581;28;20114;-75
2023/06/02 06:25:52;;;;;;;33.42;5.97;;;;;;;-144.73;100.00;54376.91;5095108;28;20033;-75
2023/06/02 06:28:17;;;;;;;33.92;6.75;;;;;;;-144.73;100.00;54395.38;5099622;28;20554;-75
2023/06/02 06:30:45;;;;;;;31.85;6.43;;;;;;;-144.73;100.00;54407.69;5107868;28;20058;-75
2023/06/02 06:33:10;;;;;;;31.85;7.28;;;;;;;-144.73;100.00;54346.13;5093110;28;20042;-75
2023/06/02 06:35:36;;;;;;;27.92;7.50;;;;;;;-144.73;100.00;54407.69;5099330;28;20023;-75
2023/06/02 06:38:01;;;;;;;30.45;7.22;;;;;;;-144.73;100.00;54362.53;5090864;28;20086;-75
2023/06/02 06:40:27;;;;;;;29.77;6.55;;;;;;;-144.73;100.00;54395.38;5096885;28;20031;-76
2023/06/02 06:42:52;;;;;;;26.52;6.35;;;;;;;-144.73;100.00;54378.97;5096228;28;20047;-75
2023/06/02 06:45:17;;;;;;;30.17;7.50;;;;;;;-144.73;100.00;54420.00;5095437;28;20028;-76
2023/06/02 06:47:43;;;;;;;23.25;5.85;;;;;;;-144.73;100.00;54387.19;5105073;28;20042;-76
2023/06/02 06:50:08;;;;;;;37.50;6.85;;;;;;;-144.73;100.00;54393.34;5089741;28;20020;-76
2023/06/02 06:52:34;;;;;;;23.98;6.95;;;;;;;-144.73;100.00;54395.38;5103757;28;20088;-76
2023/06/02 06:54:59;;;;;;;20.73;5.70;;;;;;;-144.73;100.00;54444.66;5097021;28;20030;-75
2023/06/02 06:57:24;;;;;;;22.40;6.78;;;;;;;-144.73;100.00;54407.69;5093398;28;20032;-75
2023/06/02 06:59:50;;;;;;;30.33;7.57;;;;;;;-144.73;100.00;54399.50;5108230;28;20027;-74
2023/06/02 07:02:15;;;;;;;22.95;6.45;;;;;;;-144.73;100.00;54444.66;5096210;28;20028;-75
2023/06/02 07:04:40;;;;;;;37.58;8.15;;;;;;;-144.73;100.00;54366.66;5109801;28;20043;-76
2023/06/02 07:07:06;;;;;;;24.25;7.25;;;;;;;-144.73;100.00;54383.06;5108605;28;20379;-77
2023/06/02 07:09:31;;;;;;;27.02;7.10;;;;;;;-144.73;100.00;54378.97;5103221;28;20043;-74
2023/06/02 07:11:57;;;;;;;21.67;7.18;;;;;;;-144.73;100.00;54393.34;5096493;28;20123;-75
2023/06/02 07:14:22;;;;;;;28.77;7.38;;;;;;;-144.73;100.00;54407.69;5109616;28;20051;-76
2023/06/02 07:16:52;;;;;;;25.42;6.97;;;;;;;-144.73;100.00;54350.22;5085381;28;20554;-75
2023/06/02 07:19:17;;;;;;;30.88;8.60;;;;;;;-144.73;100.00;54387.19;5093136;28;20034;-76
2023/06/02 07:21:43;;;;;;;26.00;7.00;;;;;;;-144.73;100.00;54391.28;5089397;28;20036;-76
2023/06/02 07:24:08;;;;;;;29.13;7.55;;;;;;;-144.73;100.00;54358.44;5099832;28;20055;-76
2023/06/02 07:26:34;;;;;;;27.75;8.25;;;;;;;-144.73;100.00;54391.28;5096135;28;20035;-75
2023/06/02 07:28:59;;;;;;;19.83;6.38;;;;;;;-144.73;100.00;54385.13;5095345;28;20039;-75
2023/06/02 07:31:24;;;;;;;26.45;7.28;;;;;;;-144.73;100.00;54350.22;5101075;28;20024;-76
2023/06/02 07:33:50;;;;;;;29.95;8.18;;;;;;;-144.73;100.00;54407.69;5098573;28;20012;-75
2023/06/02 07:36:15;;;;;;;43.25;8.45;;;;;;;-144.73;100.00;54370.75;5089963;28;20032;-76
2023/06/02 07:38:40;;;;;;;15.60;6.82;;;;;;;-144.73;100.00;54354.34;5081956;28;20032;-74
2023/06/02 07:41:06;;;;;;;24.73;6.90;;;;;;;-144.73;100.00;54366.66;5084577;28;20067;-75
2023/06/02 07:43:32;;;;;;;20.63;7.00;;;;;;;-144.73;100.00;54342.03;5087169;28;20036;-76
2023/06/02 07:45:57;;;;;;;16.20;5.78;;;;;;;-144.73;100.00;54387.19;5091613;28;20501;-76
2023/06/02 07:48:22;;;;;;;23.52;6.13;;;;;;;-144.73;100.00;54374.84;5088302;28;20039;-76
2023/06/02 07:50:48;;;;;;;14.98;5.53;;;;;;;-144.73;100.00;54407.69;5095113;28;20083;-75
2023/06/02 07:53:13;;;;;;;26.13;5.78;;;;;;;-144.73;100.00;54391.28;5099245;28;20024;-75
2023/06/02 07:55:38;;;;;;;18.95;6.75;;;;;;;-144.73;100.00;54325.59;5093133;28;20036;-75
2023/06/02 07:58:04;;;;;;;22.55;6.47;;;;;;;-144.73;99.60;54391.28;5090890;28;20123;-76
2023/06/02 08:00:29;;;;;;;12.75;5.07;;;;;;;-144.73;98.69;54342.03;5099805;28;20043;-76
2023/06/02 08:02:56;;;;;;;18.58;5.78;;;;;;;-144.73;99.57;54366.66;5094274;28;20490;-76
2023/06/02 08:05:21;;;;;;;15.30;5.47;;;;;;;-144.73;98.11;54378.97;5094289;28;20019;-76
2023/06/02 08:07:46;;;;;;;20.70;5.70;;;;;;;-144.73;100.00;54399.50;5096322;28;20027;-76
2023/06/02 08:10:12;;;;;;;22.40;6.18;;;;;;;-144.73;100.00;54389.22;5098801;28;20024;-75
2023/06/02 08:12:38;;;;;;;17.98;6.07;;;;;;;-144.73;100.00;54370.75;5093787;28;20048;-76
2023/06/02 08:15:07;;;;;;;21.05;5.78;;;;;;;-144.73;98.96;54378.97;5101862;28;20095;-76
2023/06/02 08:17:32;;;;;;;20.63;5.18;;;;;;;-144.73;97.24;54358.44;5100395;28;20032;-75
2023/06/02 08:19:59;;;;;;;18.83;5.20;;;;;;;-144.73;98.21;54333.81;5092723;28;20080;-76
2023/06/02 08:22:27;;;;;;;21.45;5.70;;;;;;;-144.73;97.16;54366.66;5091555;28;20032;-75
2023/06/02 08:24:56;;;;;;;16.70;5.20;;;;;;;-144.73;97.00;54407.69;5097940;28;20035;-75
2023/06/02 08:27:23;;;;;;;14.07;5.05;;;;;;;-144.73;96.61;54420.00;5090973;28;20043;-75
2023/06/02 08:29:51;;;;;;;16.85;5.32;;;;;;;-144.73;95.80;54362.53;5098268;28;20031;-75
2023/06/02 08:32:17;;;;;;;20.42;4.97;;;;;;;-144.73;95.42;54358.44;5092869;28;20056;-76
2023/06/02 08:34:47;;;;;;;20.10;5.32;;;;;;;-144.73;94.19;54321.50;5083370;28;20105;-75
2023/06/02 08:37:17;;;;;;;19.00;5.07;;;;;;;-144.73;97.11;54362.53;5093010;28;20031;-75
2023/06/02 08:39:47;;;;;;;17.45;5.93;;;;;;;-144.73;95.96;54362.53;5087561;28;20053;-75
2023/06/02 08:42:14;;;;;;;21.20;4.43;;;;;;;-144.73;96.54;54389.22;5087333;28;20025;-75
2023/06/02 08:44:43;;;;;;;21.98;6.20;;;;;;;-144.73;95.53;54350.22;5087344;28;20031;-76
2023/06/02 08:47:12;;;;;;;16.58;4.93;;;;;;;-144.73;93.67;54407.69;5091546;28;20032;-75
2023/06/02 08:49:42;;;;;;;16.08;4.97;;;;;;;-144.73;90.91;54374.84;5087111;28;20028;-77
2023/06/02 08:52:14;;;;;;;22.13;4.72;;;;;;;-144.73;91.85;54378.97;5108683;27;20203;-76
2023/06/02 08:54:40;;;;;;;15.10;6.10;;;;;;;-144.73;93.64;54366.66;5101079;28;20031;-76
2023/06/02 08:57:07;;;;;;;18.60;4.88;;;;;;;-144.73;93.29;54342.03;5084102;28;20036;-77
2023/06/02 08:59:33;;;;;;;23.13;4.28;;;;;;;-144.73;92.89;54342.03;5078541;28;20103;-75
2023/06/02 09:02:02;;;;;;;13.38;3.28;;;;;;;-144.73;90.60;54383.06;5083556;28;20130;-74
2023/06/02 09:04:27;;;;;;;6.43;3.22;;;;;;;-144.73;88.37;54354.34;5083419;28;20027;-75
2023/06/02 09:07:11;;;;;;;12.45;3.47;;;;;;;-144.73;92.82;54354.34;5086824;28;20035;-76
2023/06/02 09:09:45;;;;;;;24.38;4.60;;;;;;;-144.73;92.71;54358.44;5083916;28;20034;-75
2023/06/02 09:12:12;;;;;;;11.57;3.85;;;;;;;-144.73;91.02;54356.38;5081808;28;20048;-74
2023/06/02 09:14:39;;;;;;;8.25;3.45;;;;;;;-144.73;91.16;54387.19;5080817;28;20093;-75
2023/06/02 09:17:25;;;;;;;13.40;3.33;;;;;;;-144.73;90.29;54383.06;5078784;28;20089;-74
2023/06/02 09:19:53;;;;;;;13.68;3.58;;;;;;;-144.73;90.02;54333.81;5096690;28;20045;-75
2023/06/02 09:22:18;;;;;;;15.77;3.80;;;;;;;-144.73;88.34;54411.81;5093785;28;20030;-75
2023/06/02 09:24:44;;;;;;;10.30;3.15;;;;;;;-144.73;85.57;54337.91;5088433;28;20023;-75
2023/06/02 09:27:14;;;;;;;10.90;3.53;;;;;;;-144.73;82.14;54300.97;5087132;28;20494;-75
2023/06/02 09:29:40;;;;;;;7.93;2.58;;;;;;;-144.73;79.23;54342.03;5088611;28;20024;-75
2023/06/02 09:32:26;;;;;;;10.93;3.10;;;;;;;-144.73;73.57;54276.34;5082981;28;20028;-75
2023/06/02 09:34:51;;;;;;;14.45;3.65;;;;;;;-144.73;71.80;54350.22;5077812;28;20039;-75
2023/06/02 09:37:18;;;;;;;14.68;3.42;;;;;;;-144.73;73.72;54333.81;5080930;28;20031;-75
2023/06/02 09:39:48;;;;;;;8.27;3.17;;;;;;;-144.73;75.85;54337.91;5083011;28;20170;-75
2023/06/02 09:42:15;;;;;;;15.57;3.53;;;;;;;-144.73;77.52;54348.19;5111093;27;20043;-75
2023/06/02 09:45:02;;;;;;;38.38;3.28;;;;;;;-144.73;79.51;54374.84;5086408;28;20400;-75
2023/06/02 09:47:28;;;;;;;14.60;2.80;;;;;;;-144.73;78.41;54346.13;5083065;28;20032;-76
2023/06/02 09:49:53;;;;;;;21.50;3.25;;;;;;;-144.73;75.33;54307.13;5088669;28;20027;-75
2023/06/02 09:52:19;;;;;;;12.57;3.08;;;;;;;-144.73;71.66;54323.53;5088813;28;20092;-76
2023/06/02 09:54:46;;;;;;;11.57;2.88;;;;;;;-144.73;69.68;54329.72;5086170;28;20085;-76
2023/06/02 09:57:13;;;;;;;17.42;2.28;;;;;;;-144.73;68.49;54337.91;5086232;28;20066;-76
2023/06/02 09:59:40;;;;;;;16.38;2.83;;;;;;;-144.73;67.95;54346.13;5093521;28;20074;-76
2023/06/02 10:02:09;;;;;;;13.50;2.70;;;;;;;-144.73;69.84;54362.53;5092041;28;20073;-76
2023/06/02 10:04:34;;;;;;;9.85;2.58;;;;;;;-144.73;69.74;54342.03;5080793;28;20023;-75
2023/06/02 10:07:13;;;;;;;13.77;2.83;;;;;;;-144.73;69.21;54370.75;5088478;28;20048;-75
2023/06/02 10:09:55;;;;;;;13.63;2.78;;;;;;;-144.73;67.69;54350.22;5101629;27;20017;-76
2023/06/02 10:12:39;;;;;;;9.32;1.92;;;;;;;-144.73;65.17;54288.66;5096115;28;20119;-70
2023/06/02 10:15:42;;;;;;;19.65;2.55;;;;;;;-144.73;62.00;54276.34;5080059;28;20012;-70
2023/06/02 10:18:35;;;;;;;3.20;1.70;;;;;;;-144.73;59.20;54333.81;5078069;28;20039;-71
2023/06/02 10:21:24;;;;;;;13.43;2.38;;;;;;;-144.73;59.14;54284.56;5093946;28;20060;-70
2023/06/02 10:24:24;;;;;;;12.30;2.25;;;;;;;-144.73;61.08;54335.88;5087382;28;20046;-71
2023/06/02 10:27:06;;;;;;;18.08;2.40;;;;;;;-144.73;59.05;54292.75;5086711;28;20032;-71
2023/06/02 10:29:34;;;;;;;5.93;2.25;;;;;;;-144.73;59.48;54300.97;5104525;28;20107;-71
2023/06/02 10:32:00;;;;;;;16.10;2.05;;;;;;;-144.73;58.05;54276.34;5109282;27;20066;-70
2023/06/02 10:34:34;;;;;;;7.25;2.20;;;;;;;-144.73;57.93;54370.75;5103063;27;20042;-71
2023/06/02 10:37:00;;;;;;;7.35;2.28;;;;;;;-144.73;56.90;54317.38;5111652;27;20034;-70
2023/06/02 10:39:35;;;;;;;7.47;2.05;;;;;;;-144.73;58.36;54323.53;5093273;27;20027;-70
2023/06/02 10:42:15;;;;;;;8.18;1.80;;;;;;;-144.73;55.34;54354.34;5087458;28;20039;-71
2023/06/02 10:44:41;;;;;;;9.30;2.10;;;;;;;-144.73;57.54;54296.88;5102892;28;20188;-70
2023/06/02 10:47:32;;;;;;;4.38;2.00;;;;;;;-144.73;58.80;54309.19;5093811;28;20118;-72
2023/06/02 10:50:03;;;;;;;6.32;2.15;;;;;;;-144.73;58.34;54370.75;5107531;27;20030;-70
2023/06/02 10:52:31;;;;;;;11.15;1.92;;;;;;;-144.73;56.92;54350.22;5115662;28;20039;-71
2023/06/02 10:55:11;;;;;;;5.15;1.70;;;;;;;-144.73;56.20;54333.81;5087495;28;20039;-71
2023/06/02 10:57:50;;;;;;;5.22;1.75;;;;;;;-144.73;55.04;54333.81;5091053;28;20038;-70
2023/06/02 11:00:49;;;;;;;8.25;2.22;;;;;;;-144.73;53.28;54309.19;5103473;28;20042;-71
2023/06/02 11:03:15;;;;;;;17.40;2.35;;;;;;;-144.73;53.06;54342.03;5086735;28;20028;-72
2023/06/02 11:05:41;;;;;;;6.50;1.80;;;;;;;-144.73;53.80;54313.28;5087524;28;20024;-72